sensor_id;sensor_type;location;lat;lon;timestamp;P1;durP1;ratioP1;P2;durP2;ratioP2
10458;SDS011;5277;48.722;8.736;2023-04-09T00:01:01;7.63;;;5.50;;
10458;SDS011;5277;48.722;8.736;2023-04-09T00:03:28;6.60;;;5.07;;
10458;SDS011;5277;48.722;8.736;2023-04-09T00:05:54;11.63;;;5.57;;
10458;SDS011;5277;48.722;8.736;2023-04-09T00:08:20;9.30;;;5.83;;
10458;SDS011;5277;48.722;8.736;2023-04-09T00:10:47;7.10;;;5.33;;
10458;SDS011;5277;48.722;8.736;2023-04-09T00:13:13;8.67;;;5.57;;
10458;SDS011;5277;48.722;8.736;2023-04-09T00:15:39;9.87;;;5.43;;
10458;SDS011;5277;48.722;8.736;2023-04-09T00:18:04;8.77;;;5.43;;
10458;SDS011;5277;48.722;8.736;2023-04-09T00:20:30;7.10;;;5.57;;
10458;SDS011;5277;48.722;8.736;2023-04-09T00:22:56;6.73;;;4.90;;
10458;SDS011;5277;48.722;8.736;2023-04-09T00:25:22;9.33;;;5.50;;
10458;SDS011;5277;48.722;8.736;2023-04-09T00:27:48;9.47;;;6.27;;
10458;SDS011;5277;48.722;8.736;2023-04-09T00:30:14;6.87;;;5.97;;
10458;SDS011;5277;48.722;8.736;2023-04-09T00:32:39;9.03;;;5.70;;
10458;SDS011;5277;48.722;8.736;2023-04-09T00:35:05;7.83;;;5.97;;
10458;SDS011;5277;48.722;8.736;2023-04-09T00:37:31;7.33;;;5.57;;
10458;SDS011;5277;48.722;8.736;2023-04-09T00:39:57;7.83;;;5.93;;
10458;SDS011;5277;48.722;8.736;2023-04-09T00:42:22;7.40;;;5.40;;
10458;SDS011;5277;48.722;8.736;2023-04-09T00:44:48;7.23;;;6.10;;
10458;SDS011;5277;48.722;8.736;2023-04-09T00:47:13;7.73;;;6.20;;
10458;SDS011;5277;48.722;8.736;2023-04-09T00:49:39;12.17;;;6.83;;
10458;SDS011;5277;48.722;8.736;2023-04-09T00:52:05;10.10;;;7.30;;
10458;SDS011;5277;48.722;8.736;2023-04-09T00:54:31;11.13;;;6.20;;
10458;SDS011;5277;48.722;8.736;2023-04-09T00:56:57;11.87;;;7.23;;
10458;SDS011;5277;48.722;8.736;2023-04-09T00:59:23;11.07;;;8.00;;
10458;SDS011;5277;48.722;8.736;2023-04-09T01:01:50;9.00;;;6.83;;
10458;SDS011;5277;48.722;8.736;2023-04-09T01:04:15;13.80;;;6.70;;
10458;SDS011;5277;48.722;8.736;2023-04-09T01:06:52;8.53;;;6.37;;
10458;SDS011;5277;48.722;8.736;2023-04-09T01:09:26;9.97;;;6.87;;
10458;SDS011;5277;48.722;8.736;2023-04-09T01:12:04;7.30;;;6.00;;
10458;SDS011;5277;48.722;8.736;2023-04-09T01:17:25;11.60;;;6.57;;
10458;SDS011;5277;48.722;8.736;2023-04-09T01:20:02;8.60;;;6.97;;
10458;SDS011;5277;48.722;8.736;2023-04-09T01:22:46;10.97;;;8.43;;
10458;SDS011;5277;48.722;8.736;2023-04-09T01:30:44;10.73;;;8.10;;
10458;SDS011;5277;48.722;8.736;2023-04-09T01:33:13;8.53;;;7.63;;
10458;SDS011;5277;48.722;8.736;2023-04-09T01:35:41;9.87;;;7.47;;
10458;SDS011;5277;48.722;8.736;2023-04-09T01:38:08;8.70;;;7.20;;
10458;SDS011;5277;48.722;8.736;2023-04-09T01:40:36;11.43;;;7.43;;
10458;SDS011;5277;48.722;8.736;2023-04-09T01:43:02;13.53;;;7.70;;
10458;SDS011;5277;48.722;8.736;2023-04-09T01:45:28;11.17;;;7.03;;
10458;SDS011;5277;48.722;8.736;2023-04-09T01:47:53;9.63;;;7.60;;
10458;SDS011;5277;48.722;8.736;2023-04-09T01:50:20;12.57;;;7.87;;
10458;SDS011;5277;48.722;8.736;2023-04-09T01:52:46;9.60;;;7.50;;
10458;SDS011;5277;48.722;8.736;2023-04-09T01:55:12;9.60;;;7.60;;
10458;SDS011;5277;48.722;8.736;2023-04-09T01:57:38;11.47;;;7.40;;
10458;SDS011;5277;48.722;8.736;2023-04-09T02:00:04;9.60;;;7.40;;
10458;SDS011;5277;48.722;8.736;2023-04-09T02:02:33;13.37;;;6.60;;
10458;SDS011;5277;48.722;8.736;2023-04-09T02:05:17;9.90;;;6.67;;
10458;SDS011;5277;48.722;8.736;2023-04-09T02:07:47;8.30;;;6.57;;
10458;SDS011;5277;48.722;8.736;2023-04-09T02:10:20;13.00;;;8.27;;
10458;SDS011;5277;48.722;8.736;2023-04-09T02:12:49;8.03;;;7.13;;
10458;SDS011;5277;48.722;8.736;2023-04-09T02:15:16;8.20;;;7.03;;
10458;SDS011;5277;48.722;8.736;2023-04-09T02:17:44;8.27;;;6.53;;
10458;SDS011;5277;48.722;8.736;2023-04-09T02:20:09;8.20;;;6.70;;
10458;SDS011;5277;48.722;8.736;2023-04-09T02:22:36;7.20;;;6.50;;
10458;SDS011;5277;48.722;8.736;2023-04-09T02:25:02;8.93;;;6.17;;
10458;SDS011;5277;48.722;8.736;2023-04-09T02:27:28;8.23;;;6.43;;
10458;SDS011;5277;48.722;8.736;2023-04-09T02:29:54;8.23;;;6.40;;
10458;SDS011;5277;48.722;8.736;2023-04-09T02:32:19;7.60;;;5.60;;
10458;SDS011;5277;48.722;8.736;2023-04-09T02:34:45;8.23;;;6.40;;
10458;SDS011;5277;48.722;8.736;2023-04-09T02:37:10;7.33;;;5.50;;
10458;SDS011;5277;48.722;8.736;2023-04-09T02:39:36;9.00;;;5.97;;
10458;SDS011;5277;48.722;8.736;2023-04-09T02:42:02;12.37;;;6.60;;
10458;SDS011;5277;48.722;8.736;2023-04-09T02:44:27;8.00;;;6.33;;
10458;SDS011;5277;48.722;8.736;2023-04-09T02:46:53;8.60;;;6.73;;
10458;SDS011;5277;48.722;8.736;2023-04-09T02:49:18;9.13;;;6.73;;
10458;SDS011;5277;48.722;8.736;2023-04-09T02:51:44;7.43;;;6.17;;
10458;SDS011;5277;48.722;8.736;2023-04-09T02:54:09;7.57;;;6.30;;
10458;SDS011;5277;48.722;8.736;2023-04-09T02:56:35;7.43;;;6.30;;
10458;SDS011;5277;48.722;8.736;2023-04-09T02:59:01;7.57;;;6.27;;
10458;SDS011;5277;48.722;8.736;2023-04-09T03:01:26;7.20;;;6.47;;
10458;SDS011;5277;48.722;8.736;2023-04-09T03:03:52;7.90;;;6.37;;
10458;SDS011;5277;48.722;8.736;2023-04-09T03:06:17;7.73;;;5.63;;
10458;SDS011;5277;48.722;8.736;2023-04-09T03:08:43;9.00;;;6.33;;
10458;SDS011;5277;48.722;8.736;2023-04-09T03:11:08;7.70;;;6.30;;
10458;SDS011;5277;48.722;8.736;2023-04-09T03:13:34;7.73;;;6.50;;
10458;SDS011;5277;48.722;8.736;2023-04-09T03:16:00;10.57;;;6.30;;
10458;SDS011;5277;48.722;8.736;2023-04-09T03:18:25;10.50;;;6.23;;
10458;SDS011;5277;48.722;8.736;2023-04-09T03:20:51;11.27;;;6.60;;
10458;SDS011;5277;48.722;8.736;2023-04-09T03:23:16;7.37;;;6.60;;
10458;SDS011;5277;48.722;8.736;2023-04-09T03:25:42;7.60;;;6.07;;
10458;SDS011;5277;48.722;8.736;2023-04-09T03:28:07;9.77;;;6.30;;
10458;SDS011;5277;48.722;8.736;2023-04-09T03:30:33;8.10;;;6.30;;
10458;SDS011;5277;48.722;8.736;2023-04-09T03:32:59;8.00;;;6.37;;
10458;SDS011;5277;48.722;8.736;2023-04-09T03:35:25;10.23;;;7.03;;
10458;SDS011;5277;48.722;8.736;2023-04-09T03:37:50;9.83;;;7.57;;
10458;SDS011;5277;48.722;8.736;2023-04-09T03:40:16;9.50;;;7.60;;
10458;SDS011;5277;48.722;8.736;2023-04-09T03:42:42;8.93;;;6.93;;
10458;SDS011;5277;48.722;8.736;2023-04-09T03:45:08;8.30;;;6.73;;
10458;SDS011;5277;48.722;8.736;2023-04-09T03:47:34;8.13;;;6.77;;
10458;SDS011;5277;48.722;8.736;2023-04-09T03:49:59;7.43;;;6.40;;
10458;SDS011;5277;48.722;8.736;2023-04-09T03:52:25;9.73;;;6.53;;
10458;SDS011;5277;48.722;8.736;2023-04-09T03:54:51;8.67;;;7.17;;
10458;SDS011;5277;48.722;8.736;2023-04-09T03:57:16;7.30;;;6.17;;
10458;SDS011;5277;48.722;8.736;2023-04-09T03:59:42;8.73;;;6.60;;
10458;SDS011;5277;48.722;8.736;2023-04-09T04:02:07;8.83;;;7.30;;
10458;SDS011;5277;48.722;8.736;2023-04-09T04:04:33;11.93;;;7.50;;
10458;SDS011;5277;48.722;8.736;2023-04-09T04:06:58;9.27;;;6.80;;
10458;SDS011;5277;48.722;8.736;2023-04-09T04:09:24;10.60;;;7.10;;
10458;SDS011;5277;48.722;8.736;2023-04-09T04:11:50;8.70;;;6.60;;
10458;SDS011;5277;48.722;8.736;2023-04-09T04:14:15;8.10;;;6.63;;
10458;SDS011;5277;48.722;8.736;2023-04-09T04:16:41;8.30;;;7.10;;
10458;SDS011;5277;48.722;8.736;2023-04-09T04:19:07;8.33;;;6.93;;
10458;SDS011;5277;48.722;8.736;2023-04-09T04:21:32;9.13;;;7.33;;
10458;SDS011;5277;48.722;8.736;2023-04-09T04:23:58;9.33;;;6.90;;
10458;SDS011;5277;48.722;8.736;2023-04-09T04:26:23;10.63;;;7.53;;
10458;SDS011;5277;48.722;8.736;2023-04-09T04:28:49;10.00;;;7.23;;
10458;SDS011;5277;48.722;8.736;2023-04-09T04:31:14;12.23;;;7.60;;
10458;SDS011;5277;48.722;8.736;2023-04-09T04:33:40;9.77;;;7.27;;
10458;SDS011;5277;48.722;8.736;2023-04-09T04:36:10;10.07;;;7.13;;
10458;SDS011;5277;48.722;8.736;2023-04-09T04:38:37;10.43;;;6.87;;
10458;SDS011;5277;48.722;8.736;2023-04-09T04:41:03;9.40;;;6.80;;
10458;SDS011;5277;48.722;8.736;2023-04-09T04:43:29;9.80;;;7.57;;
10458;SDS011;5277;48.722;8.736;2023-04-09T04:45:56;14.27;;;7.57;;
10458;SDS011;5277;48.722;8.736;2023-04-09T04:48:21;9.90;;;7.50;;
10458;SDS011;5277;48.722;8.736;2023-04-09T04:50:54;10.03;;;7.30;;
10458;SDS011;5277;48.722;8.736;2023-04-09T04:53:24;9.20;;;7.23;;
10458;SDS011;5277;48.722;8.736;2023-04-09T04:55:50;8.40;;;7.00;;
10458;SDS011;5277;48.722;8.736;2023-04-09T04:58:15;10.50;;;7.60;;
10458;SDS011;5277;48.722;8.736;2023-04-09T05:00:41;10.70;;;7.47;;
10458;SDS011;5277;48.722;8.736;2023-04-09T05:03:07;9.70;;;7.23;;
10458;SDS011;5277;48.722;8.736;2023-04-09T05:05:32;9.27;;;7.47;;
10458;SDS011;5277;48.722;8.736;2023-04-09T05:07:58;11.60;;;8.03;;
10458;SDS011;5277;48.722;8.736;2023-04-09T05:10:23;10.93;;;8.30;;
10458;SDS011;5277;48.722;8.736;2023-04-09T05:12:49;12.60;;;9.00;;
10458;SDS011;5277;48.722;8.736;2023-04-09T05:15:14;13.63;;;10.07;;
10458;SDS011;5277;48.722;8.736;2023-04-09T05:17:43;14.07;;;9.40;;
10458;SDS011;5277;48.722;8.736;2023-04-09T05:20:09;11.13;;;8.50;;
10458;SDS011;5277;48.722;8.736;2023-04-09T05:22:35;12.77;;;8.90;;
10458;SDS011;5277;48.722;8.736;2023-04-09T05:25:01;12.50;;;9.73;;
10458;SDS011;5277;48.722;8.736;2023-04-09T05:27:28;12.67;;;9.13;;
10458;SDS011;5277;48.722;8.736;2023-04-09T05:29:53;18.27;;;11.27;;
10458;SDS011;5277;48.722;8.736;2023-04-09T05:32:19;16.57;;;10.50;;
10458;SDS011;5277;48.722;8.736;2023-04-09T05:34:45;14.50;;;10.47;;
10458;SDS011;5277;48.722;8.736;2023-04-09T05:37:11;16.57;;;10.93;;
10458;SDS011;5277;48.722;8.736;2023-04-09T05:39:36;13.63;;;10.27;;
10458;SDS011;5277;48.722;8.736;2023-04-09T05:42:02;15.33;;;11.33;;
10458;SDS011;5277;48.722;8.736;2023-04-09T05:44:28;15.37;;;9.97;;
10458;SDS011;5277;48.722;8.736;2023-04-09T05:46:53;14.13;;;8.53;;
10458;SDS011;5277;48.722;8.736;2023-04-09T05:49:19;12.10;;;9.47;;
10458;SDS011;5277;48.722;8.736;2023-04-09T05:51:44;11.47;;;9.47;;
10458;SDS011;5277;48.722;8.736;2023-04-09T05:54:10;10.90;;;8.73;;
10458;SDS011;5277;48.722;8.736;2023-04-09T05:56:36;11.70;;;9.53;;
10458;SDS011;5277;48.722;8.736;2023-04-09T05:59:01;11.13;;;9.23;;
10458;SDS011;5277;48.722;8.736;2023-04-09T06:01:27;13.23;;;8.90;;
10458;SDS011;5277;48.722;8.736;2023-04-09T06:03:53;13.47;;;8.93;;
10458;SDS011;5277;48.722;8.736;2023-04-09T06:06:19;11.77;;;9.00;;
10458;SDS011;5277;48.722;8.736;2023-04-09T06:08:45;11.10;;;8.63;;
10458;SDS011;5277;48.722;8.736;2023-04-09T06:11:11;9.63;;;7.53;;
10458;SDS011;5277;48.722;8.736;2023-04-09T06:13:37;16.57;;;8.33;;
10458;SDS011;5277;48.722;8.736;2023-04-09T06:16:03;12.13;;;8.83;;
10458;SDS011;5277;48.722;8.736;2023-04-09T06:18:29;9.87;;;8.00;;
10458;SDS011;5277;48.722;8.736;2023-04-09T06:21:05;9.63;;;8.50;;
10458;SDS011;5277;48.722;8.736;2023-04-09T06:23:32;10.63;;;8.70;;
10458;SDS011;5277;48.722;8.736;2023-04-09T06:25:59;10.17;;;7.83;;
10458;SDS011;5277;48.722;8.736;2023-04-09T06:28:25;12.20;;;8.20;;
10458;SDS011;5277;48.722;8.736;2023-04-09T06:30:52;11.50;;;8.63;;
10458;SDS011;5277;48.722;8.736;2023-04-09T06:33:19;10.73;;;8.63;;
10458;SDS011;5277;48.722;8.736;2023-04-09T06:35:45;11.57;;;8.73;;
10458;SDS011;5277;48.722;8.736;2023-04-09T06:38:11;10.93;;;9.20;;
10458;SDS011;5277;48.722;8.736;2023-04-09T06:40:37;11.20;;;9.03;;
10458;SDS011;5277;48.722;8.736;2023-04-09T06:43:03;9.87;;;8.10;;
10458;SDS011;5277;48.722;8.736;2023-04-09T06:45:29;9.37;;;7.83;;
10458;SDS011;5277;48.722;8.736;2023-04-09T06:47:56;11.03;;;7.93;;
10458;SDS011;5277;48.722;8.736;2023-04-09T06:50:22;11.10;;;8.27;;
10458;SDS011;5277;48.722;8.736;2023-04-09T06:52:47;9.73;;;8.33;;
10458;SDS011;5277;48.722;8.736;2023-04-09T06:55:13;9.37;;;8.03;;
10458;SDS011;5277;48.722;8.736;2023-04-09T06:57:39;10.67;;;8.23;;
10458;SDS011;5277;48.722;8.736;2023-04-09T07:00:04;11.20;;;8.30;;
10458;SDS011;5277;48.722;8.736;2023-04-09T07:02:30;12.33;;;8.47;;
10458;SDS011;5277;48.722;8.736;2023-04-09T07:04:56;12.03;;;8.03;;
10458;SDS011;5277;48.722;8.736;2023-04-09T07:07:22;9.27;;;7.60;;
10458;SDS011;5277;48.722;8.736;2023-04-09T07:09:47;9.87;;;8.43;;
10458;SDS011;5277;48.722;8.736;2023-04-09T07:12:13;11.83;;;8.27;;
10458;SDS011;5277;48.722;8.736;2023-04-09T07:14:38;8.33;;;6.97;;
10458;SDS011;5277;48.722;8.736;2023-04-09T07:17:04;11.40;;;8.30;;
10458;SDS011;5277;48.722;8.736;2023-04-09T07:19:30;10.23;;;7.72;;
10458;SDS011;5277;48.722;8.736;2023-04-09T07:21:55;10.20;;;8.03;;
10458;SDS011;5277;48.722;8.736;2023-04-09T07:24:21;11.00;;;8.02;;
10458;SDS011;5277;48.722;8.736;2023-04-09T07:26:46;8.63;;;7.03;;
10458;SDS011;5277;48.722;8.736;2023-04-09T07:29:12;9.95;;;7.70;;
10458;SDS011;5277;48.722;8.736;2023-04-09T07:31:37;9.50;;;7.47;;
10458;SDS011;5277;48.722;8.736;2023-04-09T07:34:03;8.95;;;7.90;;
10458;SDS011;5277;48.722;8.736;2023-04-09T07:36:29;10.20;;;7.82;;
10458;SDS011;5277;48.722;8.736;2023-04-09T07:38:55;9.80;;;8.27;;
10458;SDS011;5277;48.722;8.736;2023-04-09T07:41:21;11.13;;;8.90;;
10458;SDS011;5277;48.722;8.736;2023-04-09T07:43:46;10.55;;;8.32;;
10458;SDS011;5277;48.722;8.736;2023-04-09T07:46:17;12.35;;;10.55;;
10458;SDS011;5277;48.722;8.736;2023-04-09T07:48:44;14.15;;;10.48;;
10458;SDS011;5277;48.722;8.736;2023-04-09T07:51:09;11.70;;;10.50;;
10458;SDS011;5277;48.722;8.736;2023-04-09T07:53:35;12.75;;;10.05;;
10458;SDS011;5277;48.722;8.736;2023-04-09T07:56:01;15.30;;;11.90;;
10458;SDS011;5277;48.722;8.736;2023-04-09T07:58:27;14.23;;;11.50;;
10458;SDS011;5277;48.722;8.736;2023-04-09T08:00:53;13.80;;;11.80;;
10458;SDS011;5277;48.722;8.736;2023-04-09T08:03:18;15.70;;;12.13;;
10458;SDS011;5277;48.722;8.736;2023-04-09T08:05:44;14.63;;;11.63;;
10458;SDS011;5277;48.722;8.736;2023-04-09T08:08:09;13.07;;;11.60;;
10458;SDS011;5277;48.722;8.736;2023-04-09T08:10:35;15.23;;;12.00;;
10458;SDS011;5277;48.722;8.736;2023-04-09T08:13:01;12.52;;;10.65;;
10458;SDS011;5277;48.722;8.736;2023-04-09T08:15:26;11.88;;;9.50;;
10458;SDS011;5277;48.722;8.736;2023-04-09T08:17:52;11.35;;;8.68;;
10458;SDS011;5277;48.722;8.736;2023-04-09T08:20:17;8.90;;;7.75;;
10458;SDS011;5277;48.722;8.736;2023-04-09T08:22:43;7.90;;;6.82;;
10458;SDS011;5277;48.722;8.736;2023-04-09T08:25:09;8.15;;;6.88;;
10458;SDS011;5277;48.722;8.736;2023-04-09T08:27:35;8.60;;;7.28;;
10458;SDS011;5277;48.722;8.736;2023-04-09T08:30:01;9.13;;;8.07;;
10458;SDS011;5277;48.722;8.736;2023-04-09T08:32:27;7.60;;;6.75;;
10458;SDS011;5277;48.722;8.736;2023-04-09T08:34:53;10.68;;;7.80;;
10458;SDS011;5277;48.722;8.736;2023-04-09T08:37:18;7.75;;;6.95;;
10458;SDS011;5277;48.722;8.736;2023-04-09T08:39:44;7.28;;;6.10;;
10458;SDS011;5277;48.722;8.736;2023-04-09T08:42:10;7.00;;;5.38;;
10458;SDS011;5277;48.722;8.736;2023-04-09T08:44:36;6.85;;;5.72;;
10458;SDS011;5277;48.722;8.736;2023-04-09T08:47:06;6.97;;;6.03;;
10458;SDS011;5277;48.722;8.736;2023-04-09T08:49:34;7.00;;;5.60;;
10458;SDS011;5277;48.722;8.736;2023-04-09T08:52:00;5.97;;;5.35;;
10458;SDS011;5277;48.722;8.736;2023-04-09T08:54:25;6.10;;;5.13;;
10458;SDS011;5277;48.722;8.736;2023-04-09T08:56:51;5.72;;;4.90;;
10458;SDS011;5277;48.722;8.736;2023-04-09T08:59:16;6.97;;;5.05;;
10458;SDS011;5277;48.722;8.736;2023-04-09T09:01:45;5.45;;;4.88;;
10458;SDS011;5277;48.722;8.736;2023-04-09T09:04:13;7.32;;;4.72;;
10458;SDS011;5277;48.722;8.736;2023-04-09T09:06:40;5.80;;;4.78;;
10458;SDS011;5277;48.722;8.736;2023-04-09T09:09:15;4.80;;;4.30;;
10458;SDS011;5277;48.722;8.736;2023-04-09T09:14:08;4.22;;;3.83;;
10458;SDS011;5277;48.722;8.736;2023-04-09T09:16:39;5.05;;;3.85;;
10458;SDS011;5277;48.722;8.736;2023-04-09T09:19:08;5.38;;;3.65;;
10458;SDS011;5277;48.722;8.736;2023-04-09T09:22:00;3.90;;;3.38;;
10458;SDS011;5277;48.722;8.736;2023-04-09T09:24:26;4.20;;;3.20;;
10458;SDS011;5277;48.722;8.736;2023-04-09T09:26:52;4.38;;;3.58;;
10458;SDS011;5277;48.722;8.736;2023-04-09T09:29:18;3.53;;;3.22;;
10458;SDS011;5277;48.722;8.736;2023-04-09T09:31:51;3.58;;;3.05;;
10458;SDS011;5277;48.722;8.736;2023-04-09T09:34:18;3.72;;;2.80;;
10458;SDS011;5277;48.722;8.736;2023-04-09T09:36:44;2.95;;;2.58;;
10458;SDS011;5277;48.722;8.736;2023-04-09T09:39:11;3.70;;;2.92;;
10458;SDS011;5277;48.722;8.736;2023-04-09T09:41:38;4.47;;;3.30;;
10458;SDS011;5277;48.722;8.736;2023-04-09T09:44:08;3.65;;;2.88;;
10458;SDS011;5277;48.722;8.736;2023-04-09T09:46:36;3.70;;;2.80;;
10458;SDS011;5277;48.722;8.736;2023-04-09T09:49:05;4.47;;;2.65;;
10458;SDS011;5277;48.722;8.736;2023-04-09T09:51:32;3.00;;;2.70;;
10458;SDS011;5277;48.722;8.736;2023-04-09T09:54:01;3.10;;;2.78;;
10458;SDS011;5277;48.722;8.736;2023-04-09T09:56:35;3.28;;;2.95;;
10458;SDS011;5277;48.722;8.736;2023-04-09T09:59:14;5.78;;;3.20;;
10458;SDS011;5277;48.722;8.736;2023-04-09T10:01:47;3.10;;;2.80;;
10458;SDS011;5277;48.722;8.736;2023-04-09T10:04:23;3.60;;;2.80;;
10458;SDS011;5277;48.722;8.736;2023-04-09T10:06:53;4.28;;;3.22;;
10458;SDS011;5277;48.722;8.736;2023-04-09T10:09:20;5.82;;;2.50;;
10458;SDS011;5277;48.722;8.736;2023-04-09T10:11:47;3.10;;;2.47;;
10458;SDS011;5277;48.722;8.736;2023-04-09T10:14:13;2.90;;;2.60;;
10458;SDS011;5277;48.722;8.736;2023-04-09T10:16:43;3.20;;;2.90;;
10458;SDS011;5277;48.722;8.736;2023-04-09T10:19:08;3.15;;;2.72;;
10458;SDS011;5277;48.722;8.736;2023-04-09T10:21:40;3.58;;;3.13;;
10458;SDS011;5277;48.722;8.736;2023-04-09T10:24:08;3.63;;;2.97;;
10458;SDS011;5277;48.722;8.736;2023-04-09T10:26:34;2.85;;;2.45;;
10458;SDS011;5277;48.722;8.736;2023-04-09T10:29:08;3.50;;;3.05;;
10458;SDS011;5277;48.722;8.736;2023-04-09T10:31:49;3.97;;;3.25;;
10458;SDS011;5277;48.722;8.736;2023-04-09T10:34:17;3.83;;;3.25;;
10458;SDS011;5277;48.722;8.736;2023-04-09T10:36:45;4.78;;;3.72;;
10458;SDS011;5277;48.722;8.736;2023-04-09T10:39:17;3.53;;;3.17;;
10458;SDS011;5277;48.722;8.736;2023-04-09T10:41:43;5.43;;;3.67;;
10458;SDS011;5277;48.722;8.736;2023-04-09T10:44:22;5.60;;;3.63;;
10458;SDS011;5277;48.722;8.736;2023-04-09T10:46:48;4.55;;;3.88;;
10458;SDS011;5277;48.722;8.736;2023-04-09T10:49:20;5.07;;;3.95;;
10458;SDS011;5277;48.722;8.736;2023-04-09T10:52:03;5.47;;;4.50;;
10458;SDS011;5277;48.722;8.736;2023-04-09T10:57:09;5.13;;;4.18;;
10458;SDS011;5277;48.722;8.736;2023-04-09T10:59:36;4.63;;;4.03;;
10458;SDS011;5277;48.722;8.736;2023-04-09T11:02:05;4.00;;;3.60;;
10458;SDS011;5277;48.722;8.736;2023-04-09T11:07:10;5.05;;;4.00;;
10458;SDS011;5277;48.722;8.736;2023-04-09T11:09:36;3.97;;;3.58;;
10458;SDS011;5277;48.722;8.736;2023-04-09T11:12:02;4.70;;;4.00;;
10458;SDS011;5277;48.722;8.736;2023-04-09T11:14:27;4.93;;;3.92;;
10458;SDS011;5277;48.722;8.736;2023-04-09T11:16:53;4.00;;;3.60;;
10458;SDS011;5277;48.722;8.736;2023-04-09T11:19:19;4.13;;;3.30;;
10458;SDS011;5277;48.722;8.736;2023-04-09T11:21:46;3.90;;;3.30;;
10458;SDS011;5277;48.722;8.736;2023-04-09T11:24:12;3.75;;;3.33;;
10458;SDS011;5277;48.722;8.736;2023-04-09T11:26:38;3.90;;;3.50;;
10458;SDS011;5277;48.722;8.736;2023-04-09T11:29:05;3.72;;;3.33;;
10458;SDS011;5277;48.722;8.736;2023-04-09T11:31:34;3.50;;;3.20;;
10458;SDS011;5277;48.722;8.736;2023-04-09T11:34:00;3.85;;;3.28;;
10458;SDS011;5277;48.722;8.736;2023-04-09T11:36:26;3.65;;;3.33;;
10458;SDS011;5277;48.722;8.736;2023-04-09T11:38:52;4.20;;;3.80;;
10458;SDS011;5277;48.722;8.736;2023-04-09T11:41:40;4.28;;;3.88;;
10458;SDS011;5277;48.722;8.736;2023-04-09T11:44:06;3.88;;;3.47;;
10458;SDS011;5277;48.722;8.736;2023-04-09T11:46:32;4.15;;;3.75;;
10458;SDS011;5277;48.722;8.736;2023-04-09T11:48:59;4.03;;;3.60;;
10458;SDS011;5277;48.722;8.736;2023-04-09T11:51:25;3.97;;;3.58;;
10458;SDS011;5277;48.722;8.736;2023-04-09T11:53:52;3.95;;;3.55;;
10458;SDS011;5277;48.722;8.736;2023-04-09T11:56:18;4.38;;;3.70;;
10458;SDS011;5277;48.722;8.736;2023-04-09T11:58:45;4.00;;;3.60;;
10458;SDS011;5277;48.722;8.736;2023-04-09T12:01:11;4.03;;;3.55;;
10458;SDS011;5277;48.722;8.736;2023-04-09T12:03:37;3.65;;;3.35;;
10458;SDS011;5277;48.722;8.736;2023-04-09T12:06:03;3.65;;;3.30;;
10458;SDS011;5277;48.722;8.736;2023-04-09T12:08:36;3.88;;;3.47;;
10458;SDS011;5277;48.722;8.736;2023-04-09T12:11:06;4.00;;;3.60;;
10458;SDS011;5277;48.722;8.736;2023-04-09T12:13:33;4.45;;;3.95;;
10458;SDS011;5277;48.722;8.736;2023-04-09T12:15:59;4.82;;;3.72;;
10458;SDS011;5277;48.722;8.736;2023-04-09T12:18:25;4.38;;;3.97;;
10458;SDS011;5277;48.722;8.736;2023-04-09T12:20:51;3.88;;;3.47;;
10458;SDS011;5277;48.722;8.736;2023-04-09T12:23:16;5.03;;;3.80;;
10458;SDS011;5277;48.722;8.736;2023-04-09T12:25:42;4.25;;;3.85;;
10458;SDS011;5277;48.722;8.736;2023-04-09T12:28:12;3.95;;;3.38;;
10458;SDS011;5277;48.722;8.736;2023-04-09T12:30:42;5.75;;;3.58;;
10458;SDS011;5277;48.722;8.736;2023-04-09T12:33:08;4.57;;;3.85;;
10458;SDS011;5277;48.722;8.736;2023-04-09T12:35:34;4.38;;;3.63;;
10458;SDS011;5277;48.722;8.736;2023-04-09T12:38:02;4.68;;;3.47;;
10458;SDS011;5277;48.722;8.736;2023-04-09T12:40:29;3.88;;;3.22;;
10458;SDS011;5277;48.722;8.736;2023-04-09T12:42:55;4.20;;;3.80;;
10458;SDS011;5277;48.722;8.736;2023-04-09T12:45:21;4.05;;;3.45;;
10458;SDS011;5277;48.722;8.736;2023-04-09T12:47:47;3.50;;;3.20;;
10458;SDS011;5277;48.722;8.736;2023-04-09T12:50:13;4.18;;;3.78;;
10458;SDS011;5277;48.722;8.736;2023-04-09T12:52:40;4.10;;;3.78;;
10458;SDS011;5277;48.722;8.736;2023-04-09T12:55:06;4.00;;;3.60;;
10458;SDS011;5277;48.722;8.736;2023-04-09T12:57:32;4.13;;;3.72;;
10458;SDS011;5277;48.722;8.736;2023-04-09T13:00:00;4.10;;;3.67;;
10458;SDS011;5277;48.722;8.736;2023-04-09T13:02:27;4.40;;;4.00;;
10458;SDS011;5277;48.722;8.736;2023-04-09T13:04:52;4.38;;;3.95;;
10458;SDS011;5277;48.722;8.736;2023-04-09T13:07:18;3.90;;;3.50;;
10458;SDS011;5277;48.722;8.736;2023-04-09T13:09:44;4.90;;;4.30;;
10458;SDS011;5277;48.722;8.736;2023-04-09T13:12:11;4.43;;;4.03;;
10458;SDS011;5277;48.722;8.736;2023-04-09T13:14:40;5.30;;;3.88;;
10458;SDS011;5277;48.722;8.736;2023-04-09T13:17:07;4.60;;;4.20;;
10458;SDS011;5277;48.722;8.736;2023-04-09T13:19:33;4.07;;;3.65;;
10458;SDS011;5277;48.722;8.736;2023-04-09T13:21:58;4.38;;;3.97;;
10458;SDS011;5277;48.722;8.736;2023-04-09T13:24:24;3.63;;;3.25;;
10458;SDS011;5277;48.722;8.736;2023-04-09T13:26:50;4.03;;;3.40;;
10458;SDS011;5277;48.722;8.736;2023-04-09T13:29:19;4.40;;;4.00;;
10458;SDS011;5277;48.722;8.736;2023-04-09T13:31:45;4.30;;;3.90;;
10458;SDS011;5277;48.722;8.736;2023-04-09T13:34:10;3.72;;;3.38;;
10458;SDS011;5277;48.722;8.736;2023-04-09T13:36:36;4.13;;;3.65;;
10458;SDS011;5277;48.722;8.736;2023-04-09T13:39:01;4.22;;;3.80;;
10458;SDS011;5277;48.722;8.736;2023-04-09T13:41:31;4.55;;;4.05;;
10458;SDS011;5277;48.722;8.736;2023-04-09T13:43:57;4.28;;;3.88;;
10458;SDS011;5277;48.722;8.736;2023-04-09T13:46:23;4.38;;;3.97;;
10458;SDS011;5277;48.722;8.736;2023-04-09T13:48:49;4.07;;;3.20;;
10458;SDS011;5277;48.722;8.736;2023-04-09T13:51:15;3.88;;;3.47;;
10458;SDS011;5277;48.722;8.736;2023-04-09T13:53:40;4.07;;;3.63;;
10458;SDS011;5277;48.722;8.736;2023-04-09T13:56:06;4.78;;;4.10;;
10458;SDS011;5277;48.722;8.736;2023-04-09T13:58:31;4.22;;;3.75;;
10458;SDS011;5277;48.722;8.736;2023-04-09T14:00:57;5.05;;;4.30;;
10458;SDS011;5277;48.722;8.736;2023-04-09T14:03:23;5.35;;;3.97;;
10458;SDS011;5277;48.722;8.736;2023-04-09T14:05:48;4.40;;;3.90;;
10458;SDS011;5277;48.722;8.736;2023-04-09T14:08:14;3.58;;;3.03;;
10458;SDS011;5277;48.722;8.736;2023-04-09T14:10:40;4.53;;;4.05;;
10458;SDS011;5277;48.722;8.736;2023-04-09T14:13:06;4.72;;;4.07;;
10458;SDS011;5277;48.722;8.736;2023-04-09T14:15:34;4.18;;;3.78;;
10458;SDS011;5277;48.722;8.736;2023-04-09T14:18:00;4.78;;;3.40;;
10458;SDS011;5277;48.722;8.736;2023-04-09T14:20:26;4.28;;;3.35;;
10458;SDS011;5277;48.722;8.736;2023-04-09T14:22:52;4.30;;;3.67;;
10458;SDS011;5277;48.722;8.736;2023-04-09T14:25:18;5.40;;;3.60;;
10458;SDS011;5277;48.722;8.736;2023-04-09T14:27:44;4.25;;;3.85;;
10458;SDS011;5277;48.722;8.736;2023-04-09T14:30:09;3.50;;;2.90;;
10458;SDS011;5277;48.722;8.736;2023-04-09T14:32:36;4.28;;;3.88;;
10458;SDS011;5277;48.722;8.736;2023-04-09T14:35:01;3.72;;;3.33;;
10458;SDS011;5277;48.722;8.736;2023-04-09T14:37:27;4.57;;;3.35;;
10458;SDS011;5277;48.722;8.736;2023-04-09T14:39:52;3.45;;;3.15;;
10458;SDS011;5277;48.722;8.736;2023-04-09T14:42:18;3.95;;;3.55;;
10458;SDS011;5277;48.722;8.736;2023-04-09T14:44:44;3.47;;;2.70;;
10458;SDS011;5277;48.722;8.736;2023-04-09T14:47:09;3.80;;;3.17;;
10458;SDS011;5277;48.722;8.736;2023-04-09T14:49:35;4.43;;;3.40;;
10458;SDS011;5277;48.722;8.736;2023-04-09T14:52:01;4.25;;;3.38;;
10458;SDS011;5277;48.722;8.736;2023-04-09T14:54:26;3.25;;;2.80;;
10458;SDS011;5277;48.722;8.736;2023-04-09T14:56:54;4.47;;;2.80;;
10458;SDS011;5277;48.722;8.736;2023-04-09T14:59:22;3.85;;;3.30;;
10458;SDS011;5277;48.722;8.736;2023-04-09T15:01:48;3.67;;;3.15;;
10458;SDS011;5277;48.722;8.736;2023-04-09T15:04:13;3.35;;;2.85;;
10458;SDS011;5277;48.722;8.736;2023-04-09T15:06:39;4.07;;;3.17;;
10458;SDS011;5277;48.722;8.736;2023-04-09T15:09:05;3.35;;;3.05;;
10458;SDS011;5277;48.722;8.736;2023-04-09T15:11:30;4.80;;;3.55;;